Curtis, NE

2:13 PM CDT on May 05, 2015 (GMT -0500)
McCook Municipal | | Change Station
CLOSE
Current Station
Airport
Location: McCook,
Elevation: 2579 ft
Nearby Weather Stations

Elev 2579 ft 40.20 °N, 100.59 °W | Updated 9 minutes ago

Overcast
Overcast
63 °F
Feels Like 63 °F
N
12
Wind Variable Wind from South

Today
High -- | Low -- °F
--% Chance of Precip.
Yesterday
High -- | Low -- °F
Precip. -- in
6:36 AM 8:42 PM
Full, 97% visible
Pressure 29.94 in
Visibility 5.0 miles
Clouds Few 900 ft
Mostly Cloudy 1600 ft
Overcast 5000 ft
Dew Point 60 °F
Humidity 90%
Rainfall 0.14 in
Snow Depth Not available.
UV 3 out of 12
Pollen 4.90 out of 12
Air Quality Not available.
Flu Activity Local Activity
SPECI KMCK 051904Z AUTO 17010KT 5SM BR FEW009 BKN016 OVC050 17/16 A2994 RMK AO2 LTG DSNT NE RAE1858 P0000 T01720156

More Conditions Fewer Conditions

Pressure 29.94 in
Visibility 5.0 miles
Clouds Few 900 ft
Mostly Cloudy 1600 ft
Overcast 5000 ft
Dew Point 60 °F
Humidity 90%
Rainfall 0.14 in
Snow Depth Not available.
UV 3 out of 12
Pollen 4.90 out of 12
Air Quality Not available.
Flu Activity Local Activity
SPECI KMCK 051904Z AUTO 17010KT 5SM BR FEW009 BKN016 OVC050 17/16 A2994 RMK AO2 LTG DSNT NE RAE1858 P0000 T01720156

More Conditions Fewer Conditions

10-Day Weather Forecast

Almanac

Astronomy

May. 05, 2015 Rise Set
Actual Time
Civil Twilight
Nautical Twilight
Astronomical Twilight
Moon
Length of Visible Light
Length of Day
Tomorrow will be .
, % of the Moon is Illuminated

Today's Extremes

State Highs State Lows

Community

WunderPhotos

Upload Photos

1,818,954 photos uploaded!

WunderBlogs® & News

Nearby

Air Quality

  Air Quality AQ Index Pollutant
Not available.

Snow Depth

Station Depth Elevation

Earthquake Activity

City Distance Mag. Time & Date
Minimum magnitude displayed is 2.5.

Coastal Water Temperatures

Place Temperature

Stations

Nearby Weather Stations

Station Location Temp. Windchill Dew Point Humidity Wind Precip. Elev Updated Type